Huxford, Alabama
Current Conditions -  °F | °C
As of 3:53 PM on Friday 24 Oct 2014 (Local Time) from KGZH Reporting Station
Clear Clear  
Wind Chill: 78°   Ceiling: Unl
Heat Index: 78°   Visibility: 10mi
Dew Point: 38°   Wind: 7mph
Humidity: 24%   Direction: 20°NNE
Pressure: 30"   Gusts: NA
Location:  31.22°N, 87.46°W
Report Text: KGZH 242053Z AUTO 02006KT 10SM CLR 26/03 A3000 RMK AO2 SLP158 T02560033 56012
Loading
Personal Weather Stations






























Interactive Weather Map
Tropical Storm Tracking
New forecast layout! Learn more

10-Day Weather Forecast

Advertisements
Track Severe Weather on mobile